Time;durP1;ratioP1;P1;durP2;ratioP2;P2;SDS_P1;SDS_P2;PMS_P1;PMS_P2;Temp;Humidity;BMP_temperature;BMP_pressure;BME280_temperature;BME280_humidity;BME280_pressure;Samples;Min_cycle;Max_cycle;Signal;HPM_P1;HPM_P2
2023/01/01 00:02:06;;;;;;;;;;;;;;;;;;5037716;28;19925;-84
2023/01/01 00:04:33;;;;;;;;;;;;;;;;;;5039493;28;19968;-84
2023/01/01 00:06:59;;;;;;;;;;;;;;;;;;5040741;28;19948;-86
2023/01/01 00:12:09;;;;;;;;;;;;;;;;;;5036249;28;19983;-86
2023/01/01 00:14:38;;;;;;;;;;;;;;;;;;5035973;28;19979;-85
2023/01/01 00:17:06;;;;;;;;;;;;;;;;;;5020857;28;20304;-86
2023/01/01 00:19:32;;;;;;;;;;;;;;;;;;5025251;28;19987;-85
2023/01/01 00:21:59;;;;;;;;;;;;;;;;;;5033975;28;19992;-86
2023/01/01 00:24:25;;;;;;;;;;;;;;;;;;5034056;28;19975;-87
2023/01/01 00:26:52;;;;;;;;;;;;;;;;;;5034695;28;20008;-85
2023/01/01 00:29:18;;;;;;;;;;;;;;;;;;5033762;28;19979;-86
2023/01/01 00:31:45;;;;;;;;;;;;;;;;;;5034404;28;20467;-86
2023/01/01 00:34:13;;;;;;;;;;;;;;;;;;5034622;28;19991;-86
2023/01/01 00:36:40;;;;;;;;;;;;;;;;;;5034135;28;19949;-86
2023/01/01 00:39:06;;;;;;;;;;;;;;;;;;5034032;28;19971;-86
2023/01/01 00:41:33;;;;;;;;;;;;;;;;;;5034037;28;20362;-86
2023/01/01 00:44:00;;;;;;;;;;;;;;;;;;5035609;28;19956;-86
2023/01/01 00:46:26;;;;;;;;;;;;;;;;;;5041902;28;19932;-85
2023/01/01 00:48:56;;;;;;;;;;;;;;;;;;5036051;28;19975;-86
2023/01/01 00:51:24;;;;;;;;;;;;;;;;;;5036049;28;19951;-85
2023/01/01 00:53:50;;;;;;;;;;;;;;;;;;5034828;28;19929;-85
2023/01/01 00:56:17;;;;;;;;;;;;;;;;;;5036593;28;20354;-85
2023/01/01 00:58:43;;;;;;;;;;;;;;;;;;5034199;28;19968;-85
2023/01/01 01:01:10;;;;;;;;;;;;;;;;;;5016197;28;19926;-87
2023/01/01 01:03:38;;;;;;;;;;;;;;;;;;5014822;28;19933;-85
2023/01/01 01:06:09;;;;;;;;;;;;;;;;;;5014597;28;19972;-85
2023/01/01 01:08:38;;;;;;;;;;;;;;;;;;5015199;28;19944;-85
2023/01/01 01:11:05;;;;;;;;;;;;;;;;;;5037673;28;19925;-85
2023/01/01 01:13:46;;;;;;;;;;;;;;;;;;5032204;28;20055;-85
2023/01/01 01:16:14;;;;;;;;;;;;;;;;;;5014180;28;19957;-85
2023/01/01 01:18:41;;;;;;;;;;;;;;;;;;5025267;28;19948;-84
2023/01/01 01:21:07;;;;;;;;;;;;;;;;;;5038840;28;19925;-84
2023/01/01 01:23:34;;;;;;;;;;;;;;;;;;5033873;28;19980;-85
2023/01/01 01:26:09;;;;;;;;;;;;;;;;;;5016582;28;20363;-84
2023/01/01 01:28:35;;;;;;;;;;;;;;;;;;5027670;28;19925;-85
2023/01/01 01:31:02;;;;;;;;;;;;;;;;;;5023034;28;19980;-84
2023/01/01 01:33:28;;;;;;;;;;;;;;;;;;5019519;28;20016;-84
2023/01/01 01:35:54;;;;;;;;;;;;;;;;;;5018309;28;19988;-84
2023/01/01 01:38:21;;;;;;;;;;;;;;;;;;5020917;28;19993;-85
2023/01/01 01:40:47;;;;;;;;;;;;;;;;;;5030244;28;19976;-84
2023/01/01 01:43:20;;;;;;;;;;;;;;;;;;5037623;28;20055;-84
2023/01/01 01:45:47;;;;;;;;;;;;;;;;;;5039466;28;19925;-84
2023/01/01 01:48:14;;;;;;;;;;;;;;;;;;5049291;28;19925;-84
2023/01/01 01:53:12;;;;;;;;;;;;;;;;;;5042423;28;19925;-76
2023/01/01 01:55:40;;;;;;;;;;;;;;;;;;5055691;28;19925;-76
2023/01/01 01:58:09;;;;;;;;;;;;;;;;;;5045342;28;19925;-77
2023/01/01 02:00:37;;;;;;;;;;;;;;;;;;5035802;28;19929;-77
2023/01/01 02:03:05;;;;;;;;;;;;;;;;;;5046471;28;20391;-77
2023/01/01 02:05:32;;;;;;;;;;;;;;;;;;5065719;28;20015;-76
2023/01/01 02:07:59;;;;;;;;;;;;;;;;;;5060930;28;19933;-78
2023/01/01 02:10:26;;;;;;;;;;;;;;;;;;5056674;28;19972;-76
2023/01/01 02:12:53;;;;;;;;;;;;;;;;;;5054670;28;19931;-77
2023/01/01 02:15:21;;;;;;;;;;;;;;;;;;5055227;28;20015;-77
2023/01/01 02:17:52;;;;;;;;;;;;;;;;;;5055284;28;19968;-76
2023/01/01 02:20:23;;;;;;;;;;;;;;;;;;5054943;28;20020;-77
2023/01/01 02:22:56;;;;;;;;;;;;;;;;;;5054320;28;20007;-76
2023/01/01 02:25:28;;;;;;;;;;;;;;;;;;5056822;28;19954;-75
2023/01/01 02:27:58;;;;;;;;;;;;;;;;;;5056398;28;19931;-76
2023/01/01 02:30:27;;;;;;;;;;;;;;;;;;5054889;28;19925;-75
2023/01/01 02:32:56;;;;;;;;;;;;;;;;;;5054214;28;20055;-75
2023/01/01 02:35:37;;;;;;;;;;;;;;;;;;5054906;28;19966;-75
2023/01/01 02:38:06;;;;;;;;;;;;;;;;;;5046371;28;19980;-76
2023/01/01 02:40:34;;;;;;;;;;;;;;;;;;5055048;28;20015;-75
2023/01/01 02:43:01;;;;;;;;;;;;;;;;;;5034350;28;20019;-78
2023/01/01 02:45:29;;;;;;;;;;;;;;;;;;5035110;28;20016;-78
2023/01/01 02:47:55;;;;;;;;;;;;;;;;;;5053093;28;20484;-76
2023/01/01 02:50:23;;;;;;;;;;;;;;;;;;5054372;28;20458;-76
2023/01/01 02:53:03;;;;;;;;;;;;;;;;;;5052903;28;20008;-77
2023/01/01 02:55:35;;;;;;;;;;;;;;;;;;5053801;28;20003;-76
2023/01/01 03:00:50;;;;;;;;;;;;;;;;;;5052674;28;19933;-77
2023/01/01 03:03:18;;;;;;;;;;;;;;;;;;5053786;28;20044;-77
2023/01/01 03:08:38;;;;;;;;;;;;;;;;;;5034100;28;19932;-76
2023/01/01 03:11:07;;;;;;;;;;;;;;;;;;5035477;28;20032;-76
2023/01/01 03:13:36;;;;;;;;;;;;;;;;;;5053492;28;19968;-76
2023/01/01 03:16:08;;;;;;;;;;;;;;;;;;5052799;28;19924;-75
2023/01/01 03:18:39;;;;;;;;;;;;;;;;;;5053562;28;20013;-76
2023/01/01 03:21:07;;;;;;;;;;;;;;;;;;5054480;28;19932;-78
2023/01/01 03:23:35;;;;;;;;;;;;;;;;;;5054528;28;19925;-77
2023/01/01 03:26:04;;;;;;;;;;;;;;;;;;5053646;28;19925;-77
2023/01/01 03:28:34;;;;;;;;;;;;;;;;;;5055360;28;20007;-76
2023/01/01 03:31:00;;;;;;;;;;;;;;;;;;5053521;28;20028;-76
2023/01/01 03:33:30;;;;;;;;;;;;;;;;;;5053169;28;20019;-76
2023/01/01 03:35:59;;;;;;;;;;;;;;;;;;5053849;28;20019;-77
2023/01/01 03:38:29;;;;;;;;;;;;;;;;;;5053670;28;20012;-76
2023/01/01 03:40:58;;;;;;;;;;;;;;;;;;5053439;28;20015;-76
2023/01/01 03:43:28;;;;;;;;;;;;;;;;;;5052698;28;20078;-76
2023/01/01 03:45:56;;;;;;;;;;;;;;;;;;5053033;28;19931;-76
2023/01/01 03:48:22;;;;;;;;;;;;;;;;;;5052398;28;19925;-77
2023/01/01 03:50:56;;;;;;;;;;;;;;;;;;5052761;28;19963;-76
2023/01/01 03:53:28;;;;;;;;;;;;;;;;;;5052560;28;20364;-76
2023/01/01 03:56:00;;;;;;;;;;;;;;;;;;5052824;28;20023;-76
2023/01/01 03:58:29;;;;;;;;;;;;;;;;;;5052768;28;19960;-77
2023/01/01 04:00:58;;;;;;;;;;;;;;;;;;5052424;28;20318;-77
2023/01/01 04:03:26;;;;;;;;;;;;;;;;;;5052494;28;19968;-76
2023/01/01 04:05:54;;;;;;;;;;;;;;;;;;5043597;28;20034;-76
2023/01/01 04:08:20;;;;;;;;;;;;;;;;;;5052456;28;19979;-77
2023/01/01 04:10:51;;;;;;;;;;;;;;;;;;5052831;28;19981;-76
2023/01/01 04:13:17;;;;;;;;;;;;;;;;;;5052705;28;20029;-77
2023/01/01 04:15:43;;;;;;;;;;;;;;;;;;5052492;28;20015;-76
2023/01/01 04:18:10;;;;;;;;;;;;;;;;;;5052090;28;19924;-77
2023/01/01 04:20:36;;;;;;;;;;;;;;;;;;5052021;28;20423;-76
2023/01/01 04:23:04;;;;;;;;;;;;;;;;;;5052133;28;20426;-76
2023/01/01 04:25:31;;;;;;;;;;;;;;;;;;5052448;28;19980;-77
2023/01/01 04:27:58;;;;;;;;;;;;;;;;;;5052369;28;20015;-77
2023/01/01 04:30:25;;;;;;;;;;;;;;;;;;5052050;28;20303;-77
2023/01/01 04:32:52;;;;;;;;;;;;;;;;;;5033564;28;20427;-77
2023/01/01 04:35:18;;;;;;;;;;;;;;;;;;5047716;28;19925;-76
2023/01/01 04:37:45;;;;;;;;;;;;;;;;;;5052986;28;19960;-77
2023/01/01 04:40:13;;;;;;;;;;;;;;;;;;5053423;28;19925;-77
2023/01/01 04:42:40;;;;;;;;;;;;;;;;;;5052361;28;20591;-76
2023/01/01 04:45:07;;;;;;;;;;;;;;;;;;5052363;28;19979;-76
2023/01/01 04:47:34;;;;;;;;;;;;;;;;;;5052487;28;19925;-76
2023/01/01 04:50:00;;;;;;;;;;;;;;;;;;5061122;28;19958;-77
2023/01/01 04:52:27;;;;;;;;;;;;;;;;;;5063795;28;20027;-77
2023/01/01 04:54:53;;;;;;;;;;;;;;;;;;5053140;28;19925;-76
2023/01/01 04:57:21;;;;;;;;;;;;;;;;;;5054309;28;19979;-76
2023/01/01 04:59:48;;;;;;;;;;;;;;;;;;5054305;28;19924;-75
2023/01/01 05:02:14;;;;;;;;;;;;;;;;;;5053903;28;20011;-76
2023/01/01 05:04:41;;;;;;;;;;;;;;;;;;5053327;28;19993;-75
2023/01/01 05:07:09;;;;;;;;;;;;;;;;;;5053572;28;19994;-77
2023/01/01 05:09:36;;;;;;;;;;;;;;;;;;5052626;28;19925;-76
2023/01/01 05:12:03;;;;;;;;;;;;;;;;;;5052320;28;21651;-77
2023/01/01 05:14:30;;;;;;;;;;;;;;;;;;5052290;28;20014;-76
2023/01/01 05:16:57;;;;;;;;;;;;;;;;;;5053416;28;20016;-75
2023/01/01 05:19:23;;;;;;;;;;;;;;;;;;5055768;28;20424;-76
2023/01/01 05:21:50;;;;;;;;;;;;;;;;;;5056376;28;20015;-76
2023/01/01 05:24:16;;;;;;;;;;;;;;;;;;5054818;28;19929;-77
2023/01/01 05:26:44;;;;;;;;;;;;;;;;;;5055673;28;19956;-77
2023/01/01 05:29:10;;;;;;;;;;;;;;;;;;5055460;28;20418;-76
2023/01/01 05:31:38;;;;;;;;;;;;;;;;;;5055968;28;19935;-76
2023/01/01 05:34:05;;;;;;;;;;;;;;;;;;5054545;28;19929;-77
2023/01/01 05:36:33;;;;;;;;;;;;;;;;;;5055809;28;20393;-77
2023/01/01 05:38:59;;;;;;;;;;;;;;;;;;5055612;28;19928;-77
2023/01/01 05:41:26;;;;;;;;;;;;;;;;;;5056337;28;19932;-76
2023/01/01 05:43:52;;;;;;;;;;;;;;;;;;5055293;28;19963;-78
2023/01/01 05:46:20;;;;;;;;;;;;;;;;;;5056098;28;20020;-77
2023/01/01 05:48:48;;;;;;;;;;;;;;;;;;5055779;28;20137;-77
2023/01/01 05:51:16;;;;;;;;;;;;;;;;;;5055631;28;19964;-77
2023/01/01 05:53:43;;;;;;;;;;;;;;;;;;5054718;28;19924;-77
2023/01/01 05:56:12;;;;;;;;;;;;;;;;;;5055136;28;19925;-76
2023/01/01 05:58:39;;;;;;;;;;;;;;;;;;5055101;28;19976;-76
2023/01/01 06:01:06;;;;;;;;;;;;;;;;;;5055159;28;19987;-77
2023/01/01 06:03:32;;;;;;;;;;;;;;;;;;5054874;28;19924;-77
2023/01/01 06:06:03;;;;;;;;;;;;;;;;;;5054325;28;20008;-77
2023/01/01 06:08:30;;;;;;;;;;;;;;;;;;5054886;28;20380;-77
2023/01/01 06:10:58;;;;;;;;;;;;;;;;;;5055123;28;19935;-77
2023/01/01 06:13:24;;;;;;;;;;;;;;;;;;5054328;28;20024;-77
2023/01/01 06:15:53;;;;;;;;;;;;;;;;;;5055004;28;19971;-77
2023/01/01 06:18:19;;;;;;;;;;;;;;;;;;5054840;28;19961;-76
2023/01/01 06:20:45;;;;;;;;;;;;;;;;;;5055174;28;20043;-76
2023/01/01 06:23:13;;;;;;;;;;;;;;;;;;5054625;28;20035;-77
2023/01/01 06:25:40;;;;;;;;;;;;;;;;;;5053948;28;19928;-76
2023/01/01 06:28:06;;;;;;;;;;;;;;;;;;5054212;28;20003;-77
2023/01/01 06:30:33;;;;;;;;;;;;;;;;;;5055076;28;19976;-77
2023/01/01 06:32:59;;;;;;;;;;;;;;;;;;5054462;28;19932;-77
2023/01/01 06:35:26;;;;;;;;;;;;;;;;;;5054587;28;19925;-76
2023/01/01 06:37:52;;;;;;;;;;;;;;;;;;5054335;28;19975;-76
2023/01/01 06:40:20;;;;;;;;;;;;;;;;;;5054538;28;19967;-76
2023/01/01 06:42:47;;;;;;;;;;;;;;;;;;5054050;28;20379;-77
2023/01/01 06:45:13;;;;;;;;;;;;;;;;;;5054420;28;19987;-76
2023/01/01 06:47:40;;;;;;;;;;;;;;;;;;5053388;28;19979;-77
2023/01/01 06:50:07;;;;;;;;;;;;;;;;;;5054188;28;20295;-77
2023/01/01 06:52:33;;;;;;;;;;;;;;;;;;5053622;28;20028;-77
2023/01/01 06:54:59;;;;;;;;;;;;;;;;;;5054310;28;19925;-77
2023/01/01 06:57:27;;;;;;;;;;;;;;;;;;5053232;28;20288;-77
2023/01/01 06:59:54;;;;;;;;;;;;;;;;;;5054445;28;19925;-77
2023/01/01 07:02:20;;;;;;;;;;;;;;;;;;5053891;28;19972;-77
2023/01/01 07:04:47;;;;;;;;;;;;;;;;;;5054401;28;19925;-76
2023/01/01 07:07:13;;;;;;;;;;;;;;;;;;5054128;28;20003;-75
2023/01/01 07:09:39;;;;;;;;;;;;;;;;;;5054730;28;20007;-76
2023/01/01 07:12:06;;;;;;;;;;;;;;;;;;5054359;28;19975;-77
2023/01/01 07:14:34;;;;;;;;;;;;;;;;;;5054331;28;20006;-77
2023/01/01 07:17:00;;;;;;;;;;;;;;;;;;5053902;28;20396;-78
2023/01/01 07:19:27;;;;;;;;;;;;;;;;;;5053044;28;20019;-76
2023/01/01 07:21:54;;;;;;;;;;;;;;;;;;5053261;28;19925;-77
2023/01/01 07:24:21;;;;;;;;;;;;;;;;;;5053241;28;20422;-76
2023/01/01 07:26:48;;;;;;;;;;;;;;;;;;5053092;28;20418;-76
2023/01/01 07:29:15;;;;;;;;;;;;;;;;;;5053145;28;20414;-76
2023/01/01 07:31:44;;;;;;;;;;;;;;;;;;5053462;28;20383;-75
2023/01/01 07:34:12;;;;;;;;;;;;;;;;;;5053439;28;19967;-76
2023/01/01 07:36:38;;;;;;;;;;;;;;;;;;5061268;28;19929;-76
2023/01/01 07:39:05;;;;;;;;;;;;;;;;;;5065789;28;19933;-76
2023/01/01 07:41:31;;;;;;;;;;;;;;;;;;5060033;28;19931;-76
2023/01/01 07:43:58;;;;;;;;;;;;;;;;;;5061237;28;19925;-76
2023/01/01 07:46:24;;;;;;;;;;;;;;;;;;5061828;28;19988;-76
2023/01/01 07:48:52;;;;;;;;;;;;;;;;;;5054520;28;19952;-76
2023/01/01 07:51:19;;;;;;;;;;;;;;;;;;5053343;28;19971;-75
2023/01/01 07:53:45;;;;;;;;;;;;;;;;;;5062925;23;19957;-78
2023/01/01 07:56:12;;;;;;;;;;;;;;;;;;5054066;28;19960;-79
2023/01/01 07:58:38;;;;;;;;;;;;;;;;;;5054892;28;19972;-78
2023/01/01 08:01:05;;;;;;;;;;;;;;;;;;5040968;28;19971;-77
2023/01/01 08:03:31;;;;;;;;;;;;;;;;;;5034320;28;20011;-77
2023/01/01 08:05:59;;;;;;;;;;;;;;;;;;5034407;28;20023;-78
2023/01/01 08:08:26;;;;;;;;;;;;;;;;;;5051099;28;19972;-80
2023/01/01 08:10:52;;;;;;;;;;;;;;;;;;5056344;28;19925;-80
2023/01/01 08:13:18;;;;;;;;;;;;;;;;;;5056119;28;19959;-80
2023/01/01 08:15:45;;;;;;;;;;;;;;;;;;5055718;28;20019;-80
2023/01/01 08:18:11;;;;;;;;;;;;;;;;;;5055559;28;20019;-80
2023/01/01 08:20:38;;;;;;;;;;;;;;;;;;5054750;28;20414;-80
2023/01/01 08:23:06;;;;;;;;;;;;;;;;;;5054977;28;19925;-79
2023/01/01 08:25:32;;;;;;;;;;;;;;;;;;5055607;28;19925;-78
2023/01/01 08:27:59;;;;;;;;;;;;;;;;;;5055222;28;20020;-79
2023/01/01 08:30:25;;;;;;;;;;;;;;;;;;5055271;28;19925;-81
2023/01/01 08:32:51;;;;;;;;;;;;;;;;;;5054841;28;20020;-80
2023/01/01 08:35:18;;;;;;;;;;;;;;;;;;5055522;28;19980;-80
2023/01/01 08:37:44;;;;;;;;;;;;;;;;;;5055404;28;20402;-80
2023/01/01 08:40:13;;;;;;;;;;;;;;;;;;5055401;28;19963;-79
2023/01/01 08:42:39;;;;;;;;;;;;;;;;;;5055236;28;19924;-80
2023/01/01 08:45:06;;;;;;;;;;;;;;;;;;5055478;28;20050;-80
2023/01/01 08:47:33;;;;;;;;;;;;;;;;;;5054910;28;20439;-80
2023/01/01 08:49:59;;;;;;;;;;;;;;;;;;5055610;28;19986;-79
2023/01/01 08:52:26;;;;;;;;;;;;;;;;;;5059234;28;19960;-81
2023/01/01 08:54:52;;;;;;;;;;;;;;;;;;5059740;28;20065;-80
2023/01/01 08:57:20;;;;;;;;;;;;;;;;;;5059477;28;19925;-80
2023/01/01 08:59:46;;;;;;;;;;;;;;;;;;5059313;28;19931;-80
2023/01/01 09:02:13;;;;;;;;;;;;;;;;;;5060399;28;19956;-80
2023/01/01 09:04:39;;;;;;;;;;;;;;;;;;5076952;28;19929;-81
2023/01/01 09:07:06;;;;;;;;;;;;;;;;;;5072373;28;19929;-80
2023/01/01 09:09:32;;;;;;;;;;;;;;;;;;5067547;28;19959;-80
2023/01/01 09:12:04;;;;;;;;;;;;;;;;;;5056867;28;19933;-79
2023/01/01 09:14:32;;;;;;;;;;;;;;;;;;5049746;28;19940;-79
2023/01/01 09:16:59;;;;;;;;;;;;;;;;;;5058940;28;19972;-80
2023/01/01 09:19:25;;;;;;;;;;;;;;;;;;5039953;28;19925;-79
2023/01/01 09:21:52;;;;;;;;;;;;;;;;;;5039406;28;19983;-80
2023/01/01 09:24:19;;;;;;;;;;;;;;;;;;5055624;28;19925;-80
2023/01/01 09:26:45;;;;;;;;;;;;;;;;;;5039652;28;19925;-80
2023/01/01 09:29:12;;;;;;;;;;;;;;;;;;5043724;28;19980;-79
2023/01/01 09:31:41;;;;;;;;;;;;;;;;;;5046653;28;20351;-80
2023/01/01 09:34:07;;;;;;;;;;;;;;;;;;5054393;28;20011;-80
2023/01/01 09:36:34;;;;;;;;;;;;;;;;;;5059792;28;19933;-82
2023/01/01 09:39:01;;;;;;;;;;;;;;;;;;5059389;28;19924;-80
2023/01/01 09:41:33;;;;;;;;;;;;;;;;;;5059272;28;20328;-79
2023/01/01 09:44:03;;;;;;;;;;;;;;;;;;5058477;28;19988;-81
2023/01/01 09:46:29;;;;;;;;;;;;;;;;;;5059208;28;19925;-81
2023/01/01 09:48:58;;;;;;;;;;;;;;;;;;5058655;28;19925;-80
2023/01/01 09:51:26;;;;;;;;;;;;;;;;;;5060308;28;19971;-81
2023/01/01 09:53:55;;;;;;;;;;;;;;;;;;5057146;28;19936;-80
2023/01/01 09:56:23;;;;;;;;;;;;;;;;;;5054596;28;19968;-79
2023/01/01 09:58:50;;;;;;;;;;;;;;;;;;5043848;28;19981;-79
2023/01/01 10:01:19;;;;;;;;;;;;;;;;;;5046766;28;19976;-79
2023/01/01 10:03:47;;;;;;;;;;;;;;;;;;5051226;28;20424;-80
2023/01/01 10:06:20;;;;;;;;;;;;;;;;;;5056726;28;19926;-80
2023/01/01 10:08:58;;;;;;;;;;;;;;;;;;5063495;28;20518;-79
2023/01/01 10:11:28;;;;;;;;;;;;;;;;;;5066446;28;20317;-80
2023/01/01 10:13:56;;;;;;;;;;;;;;;;;;5067670;28;19960;-80
2023/01/01 10:16:27;;;;;;;;;;;;;;;;;;5069609;28;19971;-80
2023/01/01 10:18:55;;;;;;;;;;;;;;;;;;5061242;28;19924;-81
2023/01/01 10:21:24;;;;;;;;;;;;;;;;;;5059399;28;19925;-81
2023/01/01 10:23:54;;;;;;;;;;;;;;;;;;5059620;28;20395;-80
2023/01/01 10:26:22;;;;;;;;;;;;;;;;;;5060234;28;20019;-80
2023/01/01 10:28:52;;;;;;;;;;;;;;;;;;5059571;28;20363;-80
2023/01/01 10:31:29;;;;;;;;;;;;;;;;;;5059817;28;19931;-81
2023/01/01 10:33:55;;;;;;;;;;;;;;;;;;5059284;28;19932;-81
2023/01/01 10:36:24;;;;;;;;;;;;;;;;;;5060729;28;19986;-80
2023/01/01 10:38:52;;;;;;;;;;;;;;;;;;5059672;28;20012;-81
2023/01/01 10:41:18;;;;;;;;;;;;;;;;;;5059534;28;19986;-81
2023/01/01 10:43:45;;;;;;;;;;;;;;;;;;5058630;28;20020;-81
2023/01/01 10:46:12;;;;;;;;;;;;;;;;;;5059491;28;19925;-79
2023/01/01 10:48:41;;;;;;;;;;;;;;;;;;5043158;28;19955;-81
2023/01/01 10:51:15;;;;;;;;;;;;;;;;;;5048388;28;19925;-81
2023/01/01 10:53:44;;;;;;;;;;;;;;;;;;5057998;28;19925;-81
2023/01/01 10:56:11;;;;;;;;;;;;;;;;;;5053398;28;19970;-78
2023/01/01 10:58:42;;;;;;;;;;;;;;;;;;5043854;28;19925;-80
2023/01/01 11:01:09;;;;;;;;;;;;;;;;;;5047978;28;20409;-81
2023/01/01 11:03:36;;;;;;;;;;;;;;;;;;5038961;28;19968;-82
2023/01/01 11:06:04;;;;;;;;;;;;;;;;;;5056621;28;20016;-79
2023/01/01 11:08:32;;;;;;;;;;;;;;;;;;5057722;28;19947;-81
2023/01/01 11:11:01;;;;;;;;;;;;;;;;;;5058891;28;20020;-80
2023/01/01 11:13:31;;;;;;;;;;;;;;;;;;5058164;28;19986;-81
2023/01/01 11:15:57;;;;;;;;;;;;;;;;;;5057544;28;19953;-81
2023/01/01 11:18:27;;;;;;;;;;;;;;;;;;5058675;28;19932;-80
2023/01/01 11:20:54;;;;;;;;;;;;;;;;;;5057716;28;19947;-80
2023/01/01 11:23:28;;;;;;;;;;;;;;;;;;5056414;28;19936;-81
2023/01/01 11:26:04;;;;;;;;;;;;;;;;;;5046020;28;19925;-79
2023/01/01 11:28:33;;;;;;;;;;;;;;;;;;5043628;28;19925;-80
2023/01/01 11:31:04;;;;;;;;;;;;;;;;;;5060914;28;19932;-86
2023/01/01 11:33:32;;;;;;;;;;;;;;;;;;5040731;28;20284;-84
2023/01/01 11:35:59;;;;;;;;;;;;;;;;;;5060280;28;19924;-82
2023/01/01 11:38:25;;;;;;;;;;;;;;;;;;5050893;28;20015;-80
2023/01/01 11:40:52;;;;;;;;;;;;;;;;;;5059226;28;20027;-81
2023/01/01 11:43:22;;;;;;;;;;;;;;;;;;5063207;28;19971;-82
2023/01/01 11:45:49;;;;;;;;;;;;;;;;;;5063057;28;19992;-80
2023/01/01 11:48:17;;;;;;;;;;;;;;;;;;5067662;28;19913;-83
2023/01/01 11:50:49;;;;;;;;;;;;;;;;;;5078475;28;20004;-83
2023/01/01 11:53:19;;;;;;;;;;;;;;;;;;5066838;28;19925;-83
2023/01/01 11:55:47;;;;;;;;;;;;;;;;;;5057258;28;19968;-82
2023/01/01 11:58:17;;;;;;;;;;;;;;;;;;5062554;28;19932;-82
2023/01/01 12:00:45;;;;;;;;;;;;;;;;;;5068455;28;19925;-80
2023/01/01 12:03:18;;;;;;;;;;;;;;;;;;5065629;28;19932;-81
2023/01/01 12:05:48;;;;;;;;;;;;;;;;;;5052835;28;19947;-82
2023/01/01 12:08:19;;;;;;;;;;;;;;;;;;5067505;28;19925;-82
2023/01/01 12:10:49;;;;;;;;;;;;;;;;;;5070003;28;19912;-80
2023/01/01 12:13:17;;;;;;;;;;;;;;;;;;5069808;28;19956;-82
2023/01/01 12:15:47;;;;;;;;;;;;;;;;;;5050068;28;19932;-82
2023/01/01 12:18:18;;;;;;;;;;;;;;;;;;5043203;28;19956;-83
2023/01/01 12:20:48;;;;;;;;;;;;;;;;;;5045834;28;19928;-82
2023/01/01 12:23:18;;;;;;;;;;;;;;;;;;5064130;28;19925;-82
2023/01/01 12:25:46;;;;;;;;;;;;;;;;;;5063429;28;20376;-81
2023/01/01 12:28:23;;;;;;;;;;;;;;;;;;5061695;28;20379;-81
2023/01/01 12:30:55;;;;;;;;;;;;;;;;;;5060853;28;20272;-82
2023/01/01 12:33:31;;;;;;;;;;;;;;;;;;5060598;28;19929;-81
2023/01/01 12:36:07;;;;;;;;;;;;;;;;;;5035914;28;19925;-84
2023/01/01 12:38:40;;;;;;;;;;;;;;;;;;5034361;28;19968;-84
2023/01/01 12:41:08;;;;;;;;;;;;;;;;;;5042849;28;19925;-85
2023/01/01 12:43:38;;;;;;;;;;;;;;;;;;5056073;28;19924;-81
2023/01/01 12:46:19;;;;;;;;;;;;;;;;;;5058183;28;19960;-85
2023/01/01 12:48:54;;;;;;;;;;;;;;;;;;5053526;28;19924;-83
2023/01/01 12:51:34;;;;;;;;;;;;;;;;;;5037458;28;19960;-82
2023/01/01 12:54:10;;;;;;;;;;;;;;;;;;5039349;28;19940;-85
2023/01/01 12:56:40;;;;;;;;;;;;;;;;;;5055217;28;19956;-84
2023/01/01 12:59:10;;;;;;;;;;;;;;;;;;5050374;28;19956;-84
2023/01/01 13:01:39;;;;;;;;;;;;;;;;;;5055030;28;20010;-84
2023/01/01 13:04:10;;;;;;;;;;;;;;;;;;5045411;28;19925;-82
2023/01/01 13:06:39;;;;;;;;;;;;;;;;;;5059353;28;19932;-84
2023/01/01 13:09:10;;;;;;;;;;;;;;;;;;5057095;28;19971;-81
2023/01/01 13:11:38;;;;;;;;;;;;;;;;;;5049507;28;19948;-80
2023/01/01 13:14:04;;;;;;;;;;;;;;;;;;5036585;28;19984;-82
2023/01/01 13:16:35;;;;;;;;;;;;;;;;;;5042930;28;19996;-81
2023/01/01 13:19:02;;;;;;;;;;;;;;;;;;5046751;28;19986;-81
2023/01/01 13:21:31;;;;;;;;;;;;;;;;;;5042071;28;19992;-79
2023/01/01 13:24:13;;;;;;;;;;;;;;;;;;5049686;28;19925;-79
2023/01/01 13:26:40;;;;;;;;;;;;;;;;;;5054411;28;19933;-79
2023/01/01 13:29:40;;;;;;;;;;;;;;;;;;5048897;28;20020;-81
2023/01/01 13:32:08;;;;;;;;;;;;;;;;;;4961612;28;19982;-81
2023/01/01 13:34:40;;;;;;;;;;;;;;;;;;4973637;28;19932;-81
2023/01/01 13:37:27;;;;;;;;;;;;;;;;;;5004113;28;19971;-80
2023/01/01 13:39:57;;;;;;;;;;;;;;;;;;5052428;28;19965;-81
2023/01/01 13:42:40;;;;;;;;;;;;;;;;;;5052845;28;19971;-81
2023/01/01 13:45:13;;;;;;;;;;;;;;;;;;5053227;28;19999;-81
2023/01/01 13:47:45;;;;;;;;;;;;;;;;;;5061392;28;19931;-81
2023/01/01 13:50:16;;;;;;;;;;;;;;;;;;5060686;28;19940;-80
2023/01/01 13:53:01;;;;;;;;;;;;;;;;;;5051901;28;19979;-80
2023/01/01 13:55:36;;;;;;;;;;;;;;;;;;5037886;28;19931;-79
2023/01/01 14:00:31;;;;;;;;;;;;;;;;;;5070509;28;20296;-50
2023/01/01 14:02:59;;;;;;;;;;;;;;;;;;5064123;28;20019;-49
2023/01/01 14:05:29;;;;;;;;;;;;;;;;;;5048126;28;20427;-52
2023/01/01 14:07:55;;;;;;;;;;;;;;;;;;5050653;28;19932;-49
2023/01/01 14:10:24;;;;;;;;;;;;;;;;;;5035153;28;19932;-50
2023/01/01 14:12:52;;;;;;;;;;;;;;;;;;5034671;28;19925;-49
2023/01/01 14:15:27;;;;;;;;;;;;;;;;;;5034807;28;19971;-49
2023/01/01 14:17:55;;;;;;;;;;;;;;;;;;5040951;28;19928;-49
2023/01/01 14:20:23;;;;;;;;;;;;;;;;;;5074581;28;19968;-50
2023/01/01 14:22:50;;;;;;;;;;;;;;;;;;5070145;28;19924;-51
2023/01/01 14:25:20;;;;;;;;;;;;;;;;;;5034769;28;19980;-49
2023/01/01 14:27:46;;;;;;;;;;;;;;;;;;5036656;28;19932;-49
2023/01/01 14:30:18;;;;;;;;;;;;;;;;;;5074778;28;19929;-49
2023/01/01 14:32:45;;;;;;;;;;;;;;;;;;5073599;28;19932;-50
2023/01/01 14:35:14;;;;;;;;;;;;;;;;;;5034620;28;19925;-53
2023/01/01 14:37:41;;;;;;;;;;;;;;;;;;5034520;28;19933;-52
2023/01/01 14:40:14;;;;;;;;;;;;;;;;;;5072826;28;20001;-49
2023/01/01 14:42:41;;;;;;;;;;;;;;;;;;5074173;28;19932;-52
2023/01/01 14:45:13;;;;;;;;;;;;;;;;;;5036222;28;20325;-50
2023/01/01 14:47:41;;;;;;;;;;;;;;;;;;5034593;28;19932;-53
2023/01/01 14:50:12;;;;;;;;;;;;;;;;;;5042154;28;20378;-52
2023/01/01 14:52:39;;;;;;;;;;;;;;;;;;5034348;28;19929;-53
2023/01/01 14:55:07;;;;;;;;;;;;;;;;;;5069104;28;19970;-52
2023/01/01 14:57:35;;;;;;;;;;;;;;;;;;5052995;28;20294;-51
2023/01/01 15:00:03;;;;;;;;;;;;;;;;;;5034057;28;19925;-50
2023/01/01 15:02:31;;;;;;;;;;;;;;;;;;5051909;28;20020;-51
2023/01/01 15:05:14;;;;;;;;;;;;;;;;;;5056004;28;19978;-50
2023/01/01 15:07:41;;;;;;;;;;;;;;;;;;5054179;28;19932;-51
2023/01/01 15:10:12;;;;;;;;;;;;;;;;;;5073668;28;19985;-53
2023/01/01 15:12:40;;;;;;;;;;;;;;;;;;5054790;28;19925;-54
2023/01/01 15:15:23;;;;;;;;;;;;;;;;;;5032179;28;20676;-53
2023/01/01 15:17:49;;;;;;;;;;;;;;;;;;5054059;28;19924;-51
2023/01/01 15:20:22;;;;;;;;;;;;;;;;;;5073704;28;20395;-52
2023/01/01 15:22:49;;;;;;;;;;;;;;;;;;5054232;28;20374;-53
2023/01/01 15:25:17;;;;;;;;;;;;;;;;;;5033806;28;19925;-53
2023/01/01 15:27:48;;;;;;;;;;;;;;;;;;5050124;28;20265;-50
2023/01/01 15:30:23;;;;;;;;;;;;;;;;;;5073608;28;19924;-54
2023/01/01 15:32:50;;;;;;;;;;;;;;;;;;5055305;28;19925;-53
2023/01/01 15:35:21;;;;;;;;;;;;;;;;;;5033408;28;20270;-51
2023/01/01 15:37:49;;;;;;;;;;;;;;;;;;5048923;28;19925;-50
2023/01/01 15:40:33;;;;;;;;;;;;;;;;;;5073004;28;19924;-51
2023/01/01 15:43:14;;;;;;;;;;;;;;;;;;5054768;28;20386;-53
2023/01/01 15:45:42;;;;;;;;;;;;;;;;;;5033160;28;20068;-53
2023/01/01 15:48:19;;;;;;;;;;;;;;;;;;5052140;28;19924;-50
2023/01/01 15:51:00;;;;;;;;;;;;;;;;;;5065285;28;19975;-52
2023/01/01 15:53:27;;;;;;;;;;;;;;;;;;5032884;28;19925;-50
2023/01/01 15:55:55;;;;;;;;;;;;;;;;;;5039667;28;19931;-53
2023/01/01 15:58:23;;;;;;;;;;;;;;;;;;5033349;28;19925;-51
2023/01/01 16:00:53;;;;;;;;;;;;;;;;;;5038479;28;19924;-52
2023/01/01 16:03:22;;;;;;;;;;;;;;;;;;5072931;28;19977;-51
2023/01/01 16:05:50;;;;;;;;;;;;;;;;;;5045283;28;20011;-54
2023/01/01 16:08:18;;;;;;;;;;;;;;;;;;5072370;28;19978;-50
2023/01/01 16:10:45;;;;;;;;;;;;;;;;;;5069422;28;19974;-52
2023/01/01 16:13:12;;;;;;;;;;;;;;;;;;5036648;28;19956;-54
2023/01/01 16:15:48;;;;;;;;;;;;;;;;;;5041464;28;20011;-51
2023/01/01 16:18:16;;;;;;;;;;;;;;;;;;5037035;28;19944;-51
2023/01/01 16:20:42;;;;;;;;;;;;;;;;;;5046670;28;20310;-50
2023/01/01 16:23:09;;;;;;;;;;;;;;;;;;5045352;28;19970;-52
2023/01/01 16:25:38;;;;;;;;;;;;;;;;;;5038890;28;19925;-50
2023/01/01 16:28:05;;;;;;;;;;;;;;;;;;5042295;28;19931;-52
2023/01/01 16:30:32;;;;;;;;;;;;;;;;;;5045213;28;20016;-52
2023/01/01 16:32:59;;;;;;;;;;;;;;;;;;5044043;28;19925;-53
2023/01/01 16:35:25;;;;;;;;;;;;;;;;;;5047734;28;19929;-53
2023/01/01 16:37:52;;;;;;;;;;;;;;;;;;5042906;28;20336;-60
2023/01/01 16:40:18;;;;;;;;;;;;;;;;;;5043625;28;19940;-47
2023/01/01 16:42:46;;;;;;;;;;;;;;;;;;5041759;28;20132;-62
2023/01/01 16:45:16;;;;;;;;;;;;;;;;;;5042446;28;19979;-65
2023/01/01 16:47:42;;;;;;;;;;;;;;;;;;5041862;28;19970;-60
2023/01/01 16:50:09;;;;;;;;;;;;;;;;;;5049161;28;19929;-58
2023/01/01 16:52:36;;;;;;;;;;;;;;;;;;5071721;28;19982;-61
2023/01/01 16:55:02;;;;;;;;;;;;;;;;;;5057778;28;19925;-62
2023/01/01 16:57:29;;;;;;;;;;;;;;;;;;5044720;28;19925;-53
2023/01/01 16:59:57;;;;;;;;;;;;;;;;;;5040450;28;19929;-54
2023/01/01 17:02:24;;;;;;;;;;;;;;;;;;5047299;28;20007;-51
2023/01/01 17:04:50;;;;;;;;;;;;;;;;;;5048122;28;19929;-54
2023/01/01 17:07:17;;;;;;;;;;;;;;;;;;5045113;28;19995;-51
2023/01/01 17:09:43;;;;;;;;;;;;;;;;;;5038229;28;19978;-52